Time;durP1;ratioP1;P1;durP2;ratioP2;P2;SDS_P1;SDS_P2;PMS_P1;PMS_P2;Temp;Humidity;BMP_temperature;BMP_pressure;BME280_temperature;BME280_humidity;BME280_pressure;Samples;Min_cycle;Max_cycle;Signal;HPM_P1;HPM_P2
2023/09/12 00:01:22;;;;;;;1.55;1.45;;;;;;;17.56;100.00;99635.69;4971867;28;20069;-86
2023/09/12 00:03:47;;;;;;;0.77;0.77;;;;;;;17.59;100.00;99648.78;4970243;28;20054;-86
2023/09/12 00:06:13;;;;;;;3.38;1.02;;;;;;;17.53;100.00;99636.69;4977401;28;20480;-86
2023/09/12 00:08:38;;;;;;;1.75;1.55;;;;;;;17.41;100.00;99629.41;4971970;28;20045;-86
2023/09/12 00:11:13;;;;;;;2.35;1.50;;;;;;;17.37;100.00;99640.84;4956468;28;20386;-86
2023/09/12 00:13:41;;;;;;;1.33;1.15;;;;;;;17.09;100.00;99632.13;4971994;28;20041;-86
2023/09/12 00:16:10;;;;;;;0.93;0.80;;;;;;;17.07;100.00;99633.88;4982519;28;20031;-87
2023/09/12 00:18:37;;;;;;;2.08;1.20;;;;;;;17.17;100.00;99633.25;4955649;28;20060;-87
2023/09/12 00:21:03;;;;;;;1.13;1.02;;;;;;;17.10;100.00;99628.06;4971392;28;20485;-86
2023/09/12 00:23:28;;;;;;;4.40;2.53;;;;;;;17.17;100.00;99622.03;4970088;28;20098;-86
2023/09/12 00:25:54;;;;;;;1.42;1.20;;;;;;;17.25;100.00;99623.13;4971799;28;20125;-86
2023/09/12 00:28:20;;;;;;;2.03;1.60;;;;;;;17.14;100.00;99611.03;4970967;28;20042;-87
2023/09/12 00:30:46;;;;;;;0.50;0.50;;;;;;;17.19;100.00;99618.72;4972395;28;20042;-86
2023/09/12 00:33:11;;;;;;;1.65;1.55;;;;;;;17.21;100.00;99611.38;4981349;28;20049;-86
2023/09/12 00:35:37;;;;;;;0.17;0.17;;;;;;;17.10;100.00;99610.47;4971826;28;20042;-86
2023/09/12 00:38:02;;;;;;;1.50;1.40;;;;;;;17.07;100.00;99605.84;4954419;28;20053;-86
2023/09/12 00:40:28;;;;;;;0.88;0.88;;;;;;;17.17;100.00;99621.25;4955690;28;20113;-86
2023/09/12 00:42:54;;;;;;;1.50;1.35;;;;;;;17.10;100.00;99611.25;4956501;28;20066;-87
2023/09/12 00:45:20;;;;;;;0.65;0.65;;;;;;;17.17;100.00;99618.47;4983998;28;20045;-86
2023/09/12 00:47:46;;;;;;;0.77;0.73;;;;;;;17.10;100.00;99604.88;4957548;28;20096;-86
2023/09/12 00:50:11;;;;;;;1.92;1.08;;;;;;;17.13;100.00;99612.28;4957775;28;20516;-87
2023/09/12 00:52:38;;;;;;;1.30;1.15;;;;;;;17.09;100.00;99606.13;4973089;28;20037;-86
2023/09/12 00:55:04;;;;;;;1.63;1.35;;;;;;;17.11;100.00;99612.00;4974610;28;20081;-87
2023/09/12 00:57:30;;;;;;;1.48;1.23;;;;;;;17.13;100.00;99615.09;4973903;28;20046;-86
2023/09/12 00:59:56;;;;;;;3.28;2.33;;;;;;;17.03;100.00;99610.88;4974716;28;20100;-86
2023/09/12 01:02:22;;;;;;;1.13;1.02;;;;;;;16.93;100.00;99607.47;5213033;23;20066;-94
2023/09/12 01:04:48;;;;;;;2.08;1.88;;;;;;;16.88;100.00;99601.78;4968131;28;20412;-94
2023/09/12 01:07:14;;;;;;;1.00;1.00;;;;;;;17.00;100.00;99617.47;4968495;28;20045;-93
2023/09/12 01:09:40;;;;;;;1.83;1.73;;;;;;;16.98;100.00;99620.78;4970069;28;20038;-94
2023/09/12 01:12:06;;;;;;;1.60;1.48;;;;;;;16.67;100.00;99584.22;4985030;28;20074;-94
2023/09/12 01:14:32;;;;;;;0.40;0.30;;;;;;;16.57;100.00;99592.00;4958062;28;20045;-92
2023/09/12 01:16:58;;;;;;;0.70;0.70;;;;;;;16.78;100.00;99618.72;4955866;28;20507;-94
2023/09/12 01:19:24;;;;;;;0.98;0.88;;;;;;;16.66;100.00;99608.66;4956118;28;20117;-93
2023/09/12 01:22:40;;;;;;;0.50;0.50;;;;;;;16.45;100.00;99584.69;4967366;28;20038;-94
2023/09/12 01:25:18;;;;;;;0.50;0.50;;;;;;;16.65;100.00;99632.31;4955700;28;20050;-94
2023/09/12 01:27:49;;;;;;;0.80;0.80;;;;;;;16.38;100.00;99599.06;4991709;28;20057;-93
2023/09/12 01:30:18;;;;;;;2.53;1.35;;;;;;;16.23;100.00;99578.75;4985962;28;20049;-93
2023/09/12 01:32:44;;;;;;;1.80;1.65;;;;;;;16.37;100.00;99608.75;4989909;28;20042;-94
2023/09/12 01:35:09;;;;;;;0.75;0.75;;;;;;;16.42;100.00;99608.03;4974349;28;20522;-94
2023/09/12 01:37:35;;;;;;;0.40;0.40;;;;;;;16.34;100.00;99590.88;4988737;28;20400;-93
2023/09/12 01:40:03;;;;;;;6.65;2.78;;;;;;;16.42;100.00;99616.41;4949729;28;20573;-94
2023/09/12 01:42:33;;;;;;;2.10;1.80;;;;;;;16.29;100.00;99593.59;4982374;28;20121;-93
2023/09/12 01:45:01;;;;;;;1.27;0.85;;;;;;;16.41;100.00;99600.91;4944993;28;20196;-94
2023/09/12 01:47:28;;;;;;;1.45;0.75;;;;;;;16.41;100.00;99611.31;4970122;28;20043;-93
2023/09/12 01:49:56;;;;;;;1.42;1.15;;;;;;;16.14;100.00;99562.06;4973715;28;20121;-93
2023/09/12 01:52:23;;;;;;;0.40;0.40;;;;;;;16.20;100.00;99562.94;4977827;28;20093;-93
2023/09/12 01:54:52;;;;;;;1.48;1.30;;;;;;;16.30;100.00;99586.72;4989512;28;20046;-93
2023/09/12 01:57:37;;;;;;;1.90;1.20;;;;;;;16.57;100.00;99631.19;4951364;28;20044;-94
2023/09/12 02:00:03;;;;;;;0.80;0.80;;;;;;;16.53;100.00;99630.59;4993505;28;20060;-93
2023/09/12 02:02:31;;;;;;;1.13;1.02;;;;;;;16.34;100.00;99606.88;4964996;28;20038;-93
2023/09/12 02:05:19;;;;;;;3.67;1.83;;;;;;;16.25;100.00;99595.84;4955526;28;20034;-93
2023/09/12 02:07:45;;;;;;;4.25;2.10;;;;;;;16.40;100.00;99616.16;4942136;28;20039;-93
2023/09/12 02:10:14;;;;;;;1.20;1.08;;;;;;;16.31;100.00;99602.28;4974913;28;20133;-94
2023/09/12 02:12:40;;;;;;;0.65;0.65;;;;;;;16.26;100.00;99605.75;4962016;28;20468;-94
2023/09/12 02:15:07;;;;;;;0.73;0.73;;;;;;;16.16;100.00;99584.75;4958468;28;20039;-95
2023/09/12 02:17:32;;;;;;;2.00;1.23;;;;;;;16.19;100.00;99600.56;4965211;28;20537;-94
2023/09/12 02:19:58;;;;;;;0.38;0.38;;;;;;;16.22;100.00;99616.38;4963604;28;20050;-93
2023/09/12 02:22:24;;;;;;;0.70;0.70;;;;;;;16.28;100.00;99620.81;4972870;28;20042;-95
2023/09/12 02:24:51;;;;;;;0.73;0.73;;;;;;;16.13;100.00;99596.94;4964058;28;20030;-94
2023/09/12 02:27:16;;;;;;;1.58;1.05;;;;;;;16.15;100.00;99594.41;4987131;28;20041;-94
2023/09/12 02:29:42;;;;;;;0.80;0.65;;;;;;;16.35;100.00;99628.03;4969427;28;20089;-94
2023/09/12 02:32:09;;;;;;;1.50;1.40;;;;;;;16.32;100.00;99623.41;4964467;28;20174;-93
2023/09/12 02:34:35;;;;;;;1.02;0.88;;;;;;;16.33;100.00;99617.34;4959445;28;20043;-93
2023/09/12 02:37:01;;;;;;;1.98;1.15;;;;;;;16.40;100.00;99627.34;4964153;28;20620;-93
2023/09/12 02:39:26;;;;;;;2.05;1.08;;;;;;;16.14;100.00;99579.63;4947089;28;20054;-95
2023/09/12 02:41:53;;;;;;;0.65;0.65;;;;;;;16.49;100.00;99630.03;4967969;28;20041;-95
2023/09/12 02:44:19;;;;;;;2.22;1.42;;;;;;;16.15;100.00;99567.19;4936872;28;20042;-93
2023/09/12 02:46:44;;;;;;;0.77;0.77;;;;;;;16.27;100.00;99596.88;4982413;28;20045;-94
2023/09/12 02:49:10;;;;;;;0.95;0.80;;;;;;;16.50;100.00;99625.97;4953913;28;20492;-93
2023/09/12 02:51:38;;;;;;;1.85;1.27;;;;;;;16.43;100.00;99609.56;4964874;28;20038;-94
2023/09/12 02:54:04;;;;;;;1.55;1.30;;;;;;;16.46;100.00;99614.19;4957394;28;20523;-94
2023/09/12 02:56:30;;;;;;;8.30;1.75;;;;;;;16.36;100.00;99590.41;4957830;28;20035;-94
2023/09/12 02:58:56;;;;;;;0.82;0.82;;;;;;;16.57;100.00;99631.19;4976280;28;20394;-93
2023/09/12 03:01:22;;;;;;;1.02;1.00;;;;;;;16.41;100.00;99611.31;4977458;28;20042;-92
2023/09/12 03:03:55;;;;;;;2.65;2.40;;;;;;;16.54;100.00;99620.91;4958576;28;20056;-93
2023/09/12 03:06:21;;;;;;;2.78;1.63;;;;;;;16.64;100.00;99647.59;4962316;28;20045;-94
2023/09/12 03:08:47;;;;;;;3.78;0.93;;;;;;;16.31;100.00;99596.69;4973187;28;20049;-95
2023/09/12 03:11:13;;;;;;;4.57;1.90;;;;;;;16.40;100.00;99627.34;4963712;28;20043;-94
2023/09/12 03:13:50;;;;;;;1.35;1.25;;;;;;;16.17;100.00;99605.88;4969098;28;20576;-93
2023/09/12 03:16:43;;;;;;;0.95;0.80;;;;;;;16.26;100.00;99622.53;4963962;28;20054;-96
2023/09/12 03:19:18;;;;;;;2.75;2.13;;;;;;;16.23;100.00;99629.13;4975629;28;20074;-93
2023/09/12 03:21:54;;;;;;;0.38;0.38;;;;;;;15.92;100.00;99598.09;4972518;28;20097;-94
2023/09/12 03:39:08;;;;;;;0.82;0.82;;;;;;;15.69;100.00;99636.88;4991802;28;20144;-94
2023/09/12 03:41:43;;;;;;;0.88;0.77;;;;;;;15.58;100.00;99631.09;4958965;28;20077;-94
2023/09/12 03:44:09;;;;;;;1.17;1.08;;;;;;;15.59;100.00;99638.22;4940623;28;20579;-93
2023/09/12 03:46:37;;;;;;;2.15;1.95;;;;;;;15.54;100.00;99636.09;4933690;28;20122;-93
2023/09/12 03:49:03;;;;;;;1.48;1.38;;;;;;;15.75;100.00;99662.91;4969799;28;20097;-92
2023/09/12 03:51:31;;;;;;;1.92;1.73;;;;;;;15.62;100.00;99640.06;4969725;28;20590;-93
2023/09/12 03:53:57;;;;;;;1.48;1.38;;;;;;;15.69;100.00;99647.31;4977021;28;20053;-93
2023/09/12 03:56:23;;;;;;;0.60;0.60;;;;;;;15.67;100.00;99650.56;4962985;28;20064;-94
2023/09/12 03:58:49;;;;;;;0.77;0.68;;;;;;;15.47;100.00;99624.50;4975390;28;20046;-95
2023/09/12 04:01:14;;;;;;;0.85;0.82;;;;;;;15.67;100.00;99658.97;4999575;28;20049;-93
2023/09/12 04:03:40;;;;;;;0.80;0.80;;;;;;;15.69;100.00;99662.03;4961046;28;20051;-93
2023/09/12 04:06:06;;;;;;;1.58;0.95;;;;;;;15.48;100.00;99637.22;4949530;28;20437;-93
2023/09/12 04:08:32;;;;;;;0.40;0.40;;;;;;;15.52;100.00;99644.22;4944616;28;20145;-92
2023/09/12 04:10:58;;;;;;;0.90;0.80;;;;;;;15.44;100.00;99640.22;4975939;28;20537;-93
2023/09/12 04:13:24;;;;;;;0.43;0.43;;;;;;;15.58;100.00;99670.22;4956153;28;20043;-92
2023/09/12 04:15:49;;;;;;;0.47;0.35;;;;;;;15.30;100.00;99621.38;4946416;28;20044;-92
2023/09/12 04:20:40;;;;;;;1.43;0.97;;;;;;;15.54;100.00;99652.09;4967981;28;20038;-93
2023/09/12 04:23:07;;;;;;;0.73;0.73;;;;;;;15.48;100.00;99646.38;4960176;28;20293;-92
2023/09/12 04:25:35;;;;;;;0.95;0.85;;;;;;;15.27;100.00;99616.75;4975417;28;20068;-93
2023/09/12 04:28:01;;;;;;;3.20;1.38;;;;;;;15.45;100.00;99641.72;4966934;28;20041;-93
2023/09/12 04:30:27;;;;;;;1.40;1.30;;;;;;;15.33;100.00;99615.59;4954666;28;20046;-93
2023/09/12 04:32:54;;;;;;;8.10;1.75;;;;;;;15.39;100.00;99624.09;4946946;28;20042;-93
2023/09/12 04:35:20;;;;;;;1.10;1.00;;;;;;;15.66;100.00;99665.03;4970619;28;20039;-93
2023/09/12 04:37:53;;;;;;;0.73;0.70;;;;;;;15.39;100.00;99624.88;4959029;28;20042;-93
2023/09/12 04:40:18;;;;;;;0.73;0.73;;;;;;;15.46;100.00;99620.94;4954819;28;20049;-94
2023/09/12 04:42:44;;;;;;;1.27;1.17;;;;;;;15.66;100.00;99640.63;4945162;28;20035;-95
2023/09/12 04:45:10;;;;;;;1.17;1.08;;;;;;;15.62;100.00;99648.44;4949878;28;20051;-94
2023/09/12 04:47:36;;;;;;;2.10;1.75;;;;;;;15.66;100.00;99648.25;4918730;28;20121;-93
2023/09/12 04:50:02;;;;;;;6.00;2.88;;;;;;;15.67;100.00;99644.97;4951793;28;20077;-94
2023/09/12 04:52:28;;;;;;;0.50;0.50;;;;;;;15.76;100.00;99656.09;4962255;28;20071;-93
2023/09/12 04:54:54;;;;;;;0.73;0.73;;;;;;;15.90;100.00;99662.13;4947218;28;20046;-93
2023/09/12 04:57:19;;;;;;;1.52;1.10;;;;;;;15.69;100.00;99620.09;4977854;28;20038;-92
2023/09/12 04:59:45;;;;;;;1.42;1.33;;;;;;;16.08;100.00;99681.53;4963867;28;20034;-93
2023/09/12 05:02:11;;;;;;;0.30;0.30;;;;;;;16.04;100.00;99669.78;4976732;28;20050;-94
2023/09/12 05:04:36;;;;;;;7.28;1.75;;;;;;;15.92;100.00;99643.63;4939237;28;20065;-93
2023/09/12 05:07:02;;;;;;;1.60;1.50;;;;;;;16.03;100.00;99665.41;4969528;28;20515;-93
2023/09/12 05:09:28;;;;;;;0.90;0.90;;;;;;;15.97;100.00;99651.34;4933479;28;20043;-93
2023/09/12 05:11:54;;;;;;;1.23;1.13;;;;;;;16.26;100.00;99686.91;4957630;28;20035;-93
2023/09/12 05:14:19;;;;;;;1.02;1.00;;;;;;;16.26;100.00;99678.50;4954718;28;20043;-94
2023/09/12 05:16:46;;;;;;;5.50;3.40;;;;;;;16.02;100.00;99627.50;4965459;28;20031;-93
2023/09/12 05:19:11;;;;;;;0.55;0.55;;;;;;;16.21;100.00;99654.81;4961290;28;20408;-93
2023/09/12 05:21:37;;;;;;;3.97;1.55;;;;;;;16.25;100.00;99663.00;4961073;28;20074;-95
2023/09/12 05:24:03;;;;;;;1.40;1.30;;;;;;;16.45;100.00;99674.25;4964626;28;20121;-93
2023/09/12 05:26:29;;;;;;;18.77;2.92;;;;;;;16.52;100.00;99678.66;4967089;28;20043;-93
2023/09/12 05:28:55;;;;;;;1.65;1.45;;;;;;;16.51;100.00;99675.09;4952497;28;20058;-96
2023/09/12 05:31:21;;;;;;;0.88;0.88;;;;;;;16.39;100.00;99642.59;4939096;28;20134;-96
2023/09/12 05:33:56;;;;;;;1.42;1.08;;;;;;;16.33;100.00;99634.13;4956410;28;20042;-96
2023/09/12 05:36:25;;;;;;;1.95;1.77;;;;;;;16.67;100.00;99679.44;4948698;29;20047;-96
2023/09/12 05:38:50;;;;;;;1.00;0.85;;;;;;;16.63;100.00;99656.47;4939537;28;20050;-96
2023/09/12 05:41:16;;;;;;;0.32;0.32;;;;;;;16.66;100.00;99638.69;4929242;28;20051;-96
2023/09/12 05:43:42;;;;;;;1.83;1.70;;;;;;;16.95;100.00;99660.19;4933792;28;20039;-96
2023/09/12 05:46:07;;;;;;;1.13;0.98;;;;;;;17.27;100.00;99694.75;4954486;28;20066;-96
2023/09/12 05:48:33;;;;;;;1.55;0.93;;;;;;;17.30;100.00;99683.34;4925827;28;20568;-96
2023/09/12 05:50:59;;;;;;;6.43;2.50;;;;;;;17.17;100.00;99646.47;4923330;29;20054;-96
2023/09/12 05:53:25;;;;;;;0.98;0.98;;;;;;;17.48;100.00;99679.44;4957422;28;20045;-96
2023/09/12 05:55:50;;;;;;;1.23;1.13;;;;;;;17.55;100.00;99657.34;4924752;28;20111;-96
2023/09/12 05:58:16;;;;;;;0.80;0.80;;;;;;;17.69;100.00;99650.91;4959436;28;20282;-96
2023/09/12 06:00:42;;;;;;;0.60;0.60;;;;;;;18.10;100.00;99687.25;4950073;28;20141;-96
2023/09/12 06:03:08;;;;;;;1.67;1.55;;;;;;;18.15;100.00;99664.84;4947955;28;20030;-94
2023/09/12 06:05:33;;;;;;;2.78;1.95;;;;;;;18.57;100.00;99688.66;4922565;28;20517;-93
2023/09/12 06:07:59;;;;;;;1.02;1.00;;;;;;;18.75;100.00;99693.91;4956805;28;20047;-92
2023/09/12 06:10:25;;;;;;;1.50;1.17;;;;;;;18.89;100.00;99684.53;4970880;28;20397;-93
2023/09/12 06:12:50;;;;;;;1.15;1.05;;;;;;;19.09;100.00;99680.78;4953435;28;20043;-93
2023/09/12 06:15:16;;;;;;;1.30;1.20;;;;;;;19.21;100.00;99679.56;4954835;28;20046;-92
2023/09/12 06:17:42;;;;;;;1.80;1.35;;;;;;;19.33;100.00;99686.03;4941247;28;20031;-92
2023/09/12 06:20:08;;;;;;;1.77;1.30;;;;;;;19.45;100.00;99682.00;4970178;28;20039;-93
2023/09/12 06:22:34;;;;;;;2.03;1.58;;;;;;;19.66;100.00;99686.13;4969430;28;20039;-91
2023/09/12 06:25:00;;;;;;;2.17;2.03;;;;;;;19.89;100.00;99678.50;4952272;28;20064;-93
2023/09/12 06:27:25;;;;;;;1.33;1.23;;;;;;;20.25;100.00;99691.59;4938042;28;20417;-93
2023/09/12 06:29:51;;;;;;;2.03;1.85;;;;;;;20.45;100.00;99682.91;4959271;28;20145;-93
2023/09/12 06:32:17;;;;;;;5.20;3.53;;;;;;;20.68;100.00;99694.13;4986239;28;20094;-94
2023/09/12 06:34:43;;;;;;;3.35;2.88;;;;;;;20.78;100.00;99675.69;4970300;28;20117;-96
2023/09/12 06:37:12;;;;;;;1.25;1.15;;;;;;;20.88;100.00;99691.03;4936775;28;20534;-90
2023/09/12 06:39:38;;;;;;;2.20;1.25;;;;;;;21.11;100.00;99678.38;4973255;28;20031;-93
2023/09/12 06:42:03;;;;;;;1.48;1.25;;;;;;;21.37;100.00;99701.41;4954892;28;20054;-96
2023/09/12 06:44:32;;;;;;;0.75;0.75;;;;;;;21.40;100.00;99691.91;4946440;29;20050;-93
2023/09/12 06:46:58;;;;;;;1.92;1.83;;;;;;;21.67;100.00;99666.88;4952053;28;20034;-96
2023/09/12 06:49:23;;;;;;;1.42;1.33;;;;;;;21.94;100.00;99697.03;4940283;28;20122;-91
2023/09/12 06:51:49;;;;;;;2.08;1.55;;;;;;;21.90;100.00;99681.63;4950919;29;20046;-92
2023/09/12 06:54:18;;;;;;;3.10;2.42;;;;;;;22.38;100.00;99703.63;4926385;29;20450;-93
2023/09/12 06:56:43;;;;;;;4.28;3.17;;;;;;;22.33;100.00;99677.69;4935892;29;20035;-95
2023/09/12 06:59:09;;;;;;;1.25;1.15;;;;;;;22.60;100.00;99692.13;4926229;29;20574;-95
2023/09/12 07:01:35;;;;;;;1.63;1.25;;;;;;;22.82;100.00;99711.72;4948614;28;20060;-94
2023/09/12 07:04:01;;;;;;;1.25;1.02;;;;;;;22.92;100.00;99700.81;4960495;28;20051;-94
2023/09/12 07:06:26;;;;;;;1.85;1.70;;;;;;;23.06;100.00;99716.59;4937559;29;20051;-94
2023/09/12 07:08:52;;;;;;;1.25;1.17;;;;;;;23.14;100.00;99707.00;4952326;29;20524;-94
2023/09/12 07:11:19;;;;;;;1.75;1.13;;;;;;;23.44;100.00;99704.09;4964418;28;20130;-94
2023/09/12 07:13:45;;;;;;;1.02;1.02;;;;;;;23.76;100.00;99709.06;4954381;28;20066;-94
2023/09/12 07:16:10;;;;;;;1.98;1.75;;;;;;;23.67;100.00;99707.41;4935085;29;20577;-95
2023/09/12 07:18:36;;;;;;;1.60;1.50;;;;;;;23.49;100.00;99713.81;4928574;28;20129;-95
2023/09/12 07:21:03;;;;;;;1.90;1.75;;;;;;;23.37;100.00;99701.09;4967123;28;20038;-94
2023/09/12 07:23:30;;;;;;;0.93;0.93;;;;;;;23.67;100.00;99716.66;4969573;28;20053;-94
2023/09/12 07:25:59;;;;;;;2.42;1.63;;;;;;;23.86;100.00;99727.97;4953775;28;20540;-95
2023/09/12 07:28:26;;;;;;;1.10;0.77;;;;;;;23.83;100.00;99726.22;4954469;28;20055;-95
2023/09/12 07:30:52;;;;;;;1.40;1.08;;;;;;;23.86;100.00;99708.16;4965613;28;20051;-94
2023/09/12 07:33:18;;;;;;;1.85;1.60;;;;;;;23.94;100.00;99694.88;4960501;28;20047;-95
2023/09/12 07:35:44;;;;;;;1.58;1.45;;;;;;;24.12;100.00;99708.28;4941089;28;20046;-94
2023/09/12 07:38:09;;;;;;;2.70;1.38;;;;;;;24.39;100.00;99719.72;4937404;28;20158;-94
2023/09/12 07:40:35;;;;;;;1.40;1.30;;;;;;;24.14;100.00;99694.34;4967165;28;20046;-95
2023/09/12 07:43:00;;;;;;;1.15;1.05;;;;;;;24.45;100.00;99717.56;4959159;28;20871;-95
2023/09/12 07:45:27;;;;;;;1.80;1.52;;;;;;;24.44;100.00;99682.03;4955118;28;20118;-94
2023/09/12 07:48:04;;;;;;;2.05;1.13;;;;;;;24.78;100.00;99730.41;4926607;29;20099;-96
2023/09/12 07:50:30;;;;;;;0.82;0.80;;;;;;;24.99;100.00;99702.97;4939438;28;20103;-94
2023/09/12 07:52:56;;;;;;;0.80;0.80;;;;;;;24.86;100.00;99709.41;4957745;28;20054;-94
2023/09/12 07:55:21;;;;;;;2.45;1.42;;;;;;;24.76;100.00;99702.59;4950921;28;20041;-93
2023/09/12 07:57:47;;;;;;;2.10;1.80;;;;;;;24.87;100.00;99696.72;4947789;29;20527;-95
2023/09/12 08:00:13;;;;;;;3.45;2.70;;;;;;;25.18;100.00;99708.53;4972870;28;20023;-94
2023/09/12 08:02:38;;;;;;;2.30;2.10;;;;;;;25.25;100.00;99707.88;4972794;28;20051;-95
2023/09/12 08:05:08;;;;;;;1.70;1.52;;;;;;;25.74;97.54;99711.75;4972648;28;20125;-95
2023/09/12 08:07:34;;;;;;;1.60;1.33;;;;;;;25.64;93.40;99699.31;4971229;28;20050;-95
2023/09/12 08:10:00;;;;;;;1.73;1.20;;;;;;;25.51;93.14;99707.84;4970300;28;20109;-92
2023/09/12 08:12:28;;;;;;;1.00;0.98;;;;;;;25.97;93.05;99718.47;4955057;28;20046;-95
2023/09/12 08:14:54;;;;;;;2.28;1.67;;;;;;;25.61;96.13;99711.78;4976309;28;20089;-95
2023/09/12 08:17:21;;;;;;;3.25;2.10;;;;;;;25.39;92.23;99707.34;4931733;28;20101;-95
2023/09/12 08:19:46;;;;;;;2.03;1.27;;;;;;;25.32;92.02;99696.63;4943574;28;20081;-94
2023/09/12 08:22:12;;;;;;;1.30;1.10;;;;;;;25.78;88.17;99732.09;4959857;28;20060;-95
2023/09/12 08:24:39;;;;;;;2.70;1.50;;;;;;;25.74;81.53;99711.75;4944247;28;20065;-95
2023/09/12 08:27:06;;;;;;;3.40;1.70;;;;;;;25.81;81.53;99738.72;4956532;28;20077;-94
2023/09/12 08:29:41;;;;;;;1.65;1.55;;;;;;;25.74;78.54;99737.34;4956947;28;20042;-96
2023/09/12 08:32:11;;;;;;;6.18;3.67;;;;;;;25.81;81.18;99725.28;4958495;28;20043;-96
2023/09/12 08:34:37;;;;;;;1.08;0.98;;;;;;;26.26;76.26;99747.03;4978998;23;20022;-85
2023/09/12 08:37:02;;;;;;;1.77;1.25;;;;;;;26.22;72.24;99740.94;5011719;28;20509;-85
2023/09/12 08:39:33;;;;;;;1.20;0.98;;;;;;;25.85;74.77;99734.25;4995532;28;20045;-85
2023/09/12 08:41:59;;;;;;;1.75;1.15;;;;;;;26.33;72.62;99747.09;4994857;28;20054;-86
2023/09/12 08:44:25;;;;;;;2.70;1.98;;;;;;;26.11;71.16;99736.25;5012379;28;20121;-85
2023/09/12 08:46:50;;;;;;;2.28;1.88;;;;;;;26.36;73.24;99743.19;4991407;28;20057;-85
2023/09/12 08:49:16;;;;;;;2.72;1.77;;;;;;;26.80;69.09;99755.53;4984467;28;20038;-86
2023/09/12 08:51:42;;;;;;;4.10;1.70;;;;;;;26.42;69.89;99754.41;4994388;28;20034;-86
2023/09/12 08:54:07;;;;;;;1.58;1.48;;;;;;;26.63;70.65;99748.72;4994749;28;20049;-86
2023/09/12 08:56:36;;;;;;;2.78;2.15;;;;;;;26.93;69.56;99753.94;4982131;28;20046;-85
2023/09/12 08:59:02;;;;;;;1.50;1.33;;;;;;;27.24;69.17;99742.19;4991116;28;20034;-86
2023/09/12 09:01:30;;;;;;;1.45;1.35;;;;;;;27.55;65.01;99748.06;4986687;28;20402;-85
2023/09/12 09:03:56;;;;;;;1.35;1.23;;;;;;;27.78;63.41;99744.00;4974319;28;20558;-86
2023/09/12 09:06:22;;;;;;;2.75;2.50;;;;;;;27.85;62.95;99748.22;4973852;28;20141;-86
2023/09/12 09:08:48;;;;;;;2.00;1.52;;;;;;;28.06;61.38;99743.19;4975028;28;20043;-85
2023/09/12 09:11:13;;;;;;;1.77;1.48;;;;;;;28.44;62.47;99740.41;4975053;28;20043;-85
2023/09/12 09:13:39;;;;;;;3.60;1.90;;;;;;;28.54;60.60;99741.38;4974812;28;20055;-85
2023/09/12 09:16:14;;;;;;;3.75;1.83;;;;;;;28.63;58.77;99734.34;4992411;28;20039;-85
2023/09/12 09:18:58;;;;;;;1.08;1.02;;;;;;;28.77;61.12;99729.22;4973940;28;20046;-85
2023/09/12 09:21:30;;;;;;;1.38;1.25;;;;;;;28.98;58.79;99735.50;4974736;28;20046;-86
2023/09/12 09:23:56;;;;;;;1.77;1.67;;;;;;;29.01;57.66;99734.34;4992059;28;20053;-85
2023/09/12 09:26:21;;;;;;;1.27;1.17;;;;;;;28.95;55.58;99742.38;4992547;28;20039;-85
2023/09/12 09:29:07;;;;;;;3.03;1.25;;;;;;;29.24;57.55;99725.75;4958369;28;20495;-86
2023/09/12 09:31:33;;;;;;;1.23;1.05;;;;;;;29.33;55.98;99736.59;4974899;28;20042;-86
2023/09/12 09:33:59;;;;;;;1.00;0.90;;;;;;;28.99;57.76;99737.81;4973207;28;20097;-86
2023/09/12 09:36:25;;;;;;;2.55;1.52;;;;;;;29.04;59.46;99741.75;4941951;28;20046;-86
2023/09/12 09:38:50;;;;;;;1.75;1.02;;;;;;;29.35;57.57;99739.66;4974373;28;20053;-86
2023/09/12 09:41:20;;;;;;;2.47;2.25;;;;;;;28.95;56.43;99730.94;4974967;28;20510;-86
2023/09/12 09:43:45;;;;;;;1.80;1.67;;;;;;;29.10;57.49;99742.34;4973893;28;20046;-85
2023/09/12 09:46:15;;;;;;;2.15;1.63;;;;;;;29.17;57.75;99735.84;4974447;28;20065;-86
2023/09/12 09:48:48;;;;;;;0.90;0.90;;;;;;;29.62;56.55;99735.75;4974331;28;20042;-87
2023/09/12 09:51:14;;;;;;;2.38;2.10;;;;;;;29.52;54.19;99734.84;4973263;28;20057;-86
2023/09/12 09:53:39;;;;;;;2.08;1.77;;;;;;;29.44;56.91;99734.09;4990114;28;20046;-86
2023/09/12 09:56:12;;;;;;;2.00;1.80;;;;;;;29.83;55.70;99726.91;4974438;28;20112;-85
2023/09/12 09:58:48;;;;;;;;;;;;;;;29.97;55.53;99736.00;4974770;28;20122;-86
2023/09/12 10:01:19;;;;;;;1.05;1.00;;;;;;;30.02;55.10;99732.16;4980831;28;19918;-85
2023/09/12 10:03:47;;;;;;;1.50;1.23;;;;;;;30.41;51.60;99722.03;4990409;28;20117;-85
2023/09/12 10:06:15;;;;;;;8.85;1.80;;;;;;;30.41;50.99;99717.03;4991500;28;20109;-85
2023/09/12 10:08:41;;;;;;;2.08;1.80;;;;;;;30.58;50.49;99719.22;4964278;28;20388;-84
2023/09/12 10:11:07;;;;;;;1.50;1.40;;;;;;;30.50;49.42;99718.53;4967702;28;20049;-84
2023/09/12 10:13:33;;;;;;;1.70;1.60;;;;;;;30.18;53.73;99719.31;4974153;28;20046;-84
2023/09/12 10:16:01;;;;;;;3.05;2.20;;;;;;;29.76;54.05;99722.00;4970555;28;20038;-84
2023/09/12 10:18:29;;;;;;;1.60;1.27;;;;;;;29.79;55.38;99720.06;4981721;28;20050;-84
2023/09/12 10:21:04;;;;;;;2.08;1.95;;;;;;;29.94;53.68;99714.28;4956884;28;20387;-85
2023/09/12 10:24:00;;;;;;;2.92;2.40;;;;;;;30.32;53.91;99716.94;4967479;28;20043;-84
2023/09/12 10:26:26;;;;;;;3.65;2.15;;;;;;;30.66;51.47;99704.84;4977318;28;20144;-85
2023/09/12 10:28:52;;;;;;;4.43;2.22;;;;;;;30.44;52.42;99704.47;4973326;28;20486;-84
2023/09/12 10:31:17;;;;;;;1.38;1.25;;;;;;;30.75;52.07;99707.06;4972749;28;20046;-84
2023/09/12 10:33:44;;;;;;;1.63;1.20;;;;;;;30.76;52.00;99708.59;4972495;28;20035;-84
2023/09/12 10:36:11;;;;;;;3.35;2.00;;;;;;;30.52;52.62;99705.19;4973233;28;20426;-84
2023/09/12 10:38:44;;;;;;;1.98;1.77;;;;;;;30.77;54.12;99705.16;4990814;28;20046;-84
2023/09/12 10:41:14;;;;;;;3.28;1.85;;;;;;;31.21;52.25;99704.56;4961028;28;20047;-85
2023/09/12 10:43:41;;;;;;;1.70;1.60;;;;;;;31.26;50.81;99701.44;4973224;28;20078;-84
2023/09/12 10:46:07;;;;;;;1.52;1.42;;;;;;;31.09;51.97;99698.56;4973293;28;20026;-84
2023/09/12 10:48:32;;;;;;;4.90;2.28;;;;;;;31.35;51.71;99694.25;4989736;28;20525;-84
2023/09/12 10:51:00;;;;;;;1.70;1.08;;;;;;;31.48;49.91;99688.19;4972147;28;20057;-85
2023/09/12 10:53:28;;;;;;;1.25;1.15;;;;;;;30.98;50.70;99687.56;4966812;28;20092;-84
2023/09/12 10:56:09;;;;;;;2.47;2.17;;;;;;;30.98;50.16;99684.69;4957179;28;20113;-85
2023/09/12 10:59:03;;;;;;;1.65;1.55;;;;;;;30.84;51.08;99690.00;4990654;28;20131;-84
2023/09/12 11:01:30;;;;;;;1.85;1.30;;;;;;;31.14;51.97;99691.09;4989925;28;20041;-84
2023/09/12 11:03:55;;;;;;;2.08;1.63;;;;;;;31.32;46.92;99681.88;4969426;28;20049;-84
2023/09/12 11:06:31;;;;;;;2.40;1.75;;;;;;;30.71;48.02;99689.56;4983503;28;20414;-84
2023/09/12 11:09:16;;;;;;;2.30;1.52;;;;;;;30.95;49.02;99680.16;4972736;28;20046;-84
2023/09/12 11:11:43;;;;;;;2.67;2.28;;;;;;;31.29;47.58;99688.81;4985695;28;20039;-85
2023/09/12 11:14:09;;;;;;;1.60;1.50;;;;;;;31.22;46.33;99683.16;4981870;28;20049;-84
2023/09/12 11:16:35;;;;;;;1.95;1.52;;;;;;;31.30;45.00;99683.84;4961316;28;20042;-85
2023/09/12 11:19:15;;;;;;;1.92;1.67;;;;;;;31.38;44.64;99688.09;4967143;28;20112;-84
2023/09/12 11:21:42;;;;;;;24.13;2.13;;;;;;;31.66;45.85;99686.09;4982900;28;20047;-85
2023/09/12 11:24:08;;;;;;;5.05;1.55;;;;;;;31.67;44.22;99673.25;4958744;28;20097;-85
2023/09/12 11:26:33;;;;;;;6.18;3.47;;;;;;;31.53;46.32;99678.56;4961948;28;20158;-85
2023/09/12 11:29:13;;;;;;;3.03;2.17;;;;;;;31.89;46.77;99675.81;4984445;28;20042;-85
2023/09/12 11:31:42;;;;;;;3.88;2.15;;;;;;;32.00;44.86;99673.75;4978578;28;20057;-85
2023/09/12 11:34:09;;;;;;;9.73;2.15;;;;;;;32.26;44.33;99647.97;4962013;28;20517;-86
2023/09/12 11:36:41;;;;;;;2.25;1.85;;;;;;;32.51;41.31;99664.19;4962042;28;20407;-86
2023/09/12 11:39:23;;;;;;;2.88;1.58;;;;;;;32.04;41.24;99657.63;4962504;28;20426;-86
2023/09/12 11:41:49;;;;;;;2.25;1.70;;;;;;;31.98;42.78;99660.03;4976101;28;20577;-88
2023/09/12 11:44:14;;;;;;;2.22;2.03;;;;;;;32.00;41.36;99651.56;4949145;28;20089;-85
2023/09/12 11:46:41;;;;;;;2.38;1.73;;;;;;;31.76;42.05;99646.75;4946807;28;20054;-86
2023/09/12 11:49:07;;;;;;;3.33;2.22;;;;;;;31.93;43.02;99653.22;4965490;28;20031;-86